Hovedside
METAR-TAF:

METAR-TAF

Lufthavner :

Frédéric Chopin lufthavn Warszawa-Okęcie

Warszawa, Polen

breddegrad: 52-10N, lengdegrad: 020-58E, høyde over havet: 106 m

Gjeldene værobservasjon

Denne rapporten ble laget for 9 minutter siden, klokken 15:30 UTC
Vind 4 kt fra Sør
Temperatur 27°C
Luftfuktighet 48%
Trykk 1018 hPa
Sikt 10 km eller mer
ingen skyer under 1500 m og ingen bygeskyer

METAR: EPWA 201530Z 19004KT CAVOK 27/15 Q1018 NOSIG

Tid: 17:39 (15:39 UTC)

Varsel

Denne rapporten ble laget for 1 time og 9 minutter siden, klokken 14:30 UTC
Varsel gyldig fra 20. klokken 15 UTC til 21. klokken 15 UTC
Vind 7 kt fra Sør
Sikt 10 km eller mer
ingen skyer under 1500 m og ingen bygeskyer

TAF: EPWA 201430Z 2015/2115 19007KT CAVOK

Værobservasjoner og værvarsel for over 4000 flyplasser (METAR- og TAF-rapporter).

Tilgjengelige stasjoner er representert av de røde og gule prikkene på kartet.

Hold musepekeren over prikken for å se navnet på stasjonen.

Klikk så for å se værobservasjoner og -varsler.

For å forandre kartet kan du klikke på den grønne knappen med svart kryss for å zoome inn, på den grønne knappen med strek for å zoome ut, eller på de grønne pilene for å se tilstøtende kart.


METAR-TAF: